createdAt,value
2022-08-17T00:00:01.516Z,20.07
2022-08-17T00:02:29.229Z,20.07
2022-08-17T00:04:57.994Z,20.02
2022-08-17T00:07:24.853Z,19.94
2022-08-17T00:09:51.678Z,19.89
2022-08-17T00:12:43.380Z,19.79
2022-08-17T00:15:09.180Z,19.62
2022-08-17T00:17:37.895Z,19.61
2022-08-17T00:20:06.001Z,19.65
2022-08-17T00:22:36.385Z,19.57
2022-08-17T00:25:13.679Z,19.48
2022-08-17T00:27:41.125Z,19.39
2022-08-17T00:30:11.614Z,19.26
2022-08-17T00:33:12.633Z,19.25
2022-08-17T00:35:32.524Z,19.28
2022-08-17T00:37:59.502Z,19.30
2022-08-17T00:40:26.900Z,19.29
2022-08-17T00:43:26.423Z,19.28
2022-08-17T00:45:54.955Z,19.09
2022-08-17T00:48:28.994Z,19.03
2022-08-17T00:51:41.397Z,19.07
2022-08-17T00:54:24.928Z,19.03
2022-08-17T00:57:07.614Z,19.04
2022-08-17T00:59:44.631Z,19.02
2022-08-17T01:02:15.018Z,19.04
2022-08-17T01:04:45.056Z,19.02
2022-08-17T01:07:12.934Z,18.93
2022-08-17T01:09:42.629Z,18.82
2022-08-17T01:12:10.667Z,18.83
2022-08-17T01:14:39.020Z,18.86
2022-08-17T01:17:07.069Z,18.88
2022-08-17T01:19:37.805Z,18.98
2022-08-17T01:22:14.321Z,19.05
2022-08-17T01:24:48.761Z,19.05
2022-08-17T01:27:18.530Z,19.11
2022-08-17T01:29:53.099Z,19.06
2022-08-17T01:32:20.492Z,19.07
2022-08-17T01:34:50.439Z,19.11
2022-08-17T01:37:21.113Z,19.12
2022-08-17T01:39:59.424Z,19.17
2022-08-17T01:42:52.189Z,19.34
2022-08-17T01:45:26.627Z,19.46
2022-08-17T01:47:54.515Z,19.52
2022-08-17T01:50:29.297Z,19.61
2022-08-17T01:53:00.582Z,19.56
2022-08-17T01:55:34.255Z,19.52
2022-08-17T01:58:01.310Z,19.42
2022-08-17T02:00:46.769Z,19.30
2022-08-17T02:03:16.268Z,19.22
2022-08-17T02:05:44.483Z,19.08
2022-08-17T02:08:19.824Z,19.01
2022-08-17T02:10:49.906Z,18.91
2022-08-17T02:13:19.613Z,18.87
2022-08-17T02:15:47.050Z,18.75
2022-08-17T02:18:15.850Z,18.66
2022-08-17T02:20:43.169Z,18.69
2022-08-17T02:23:13.028Z,18.70
2022-08-17T02:25:43.373Z,18.66
2022-08-17T02:28:10.657Z,18.60
2022-08-17T02:31:00.969Z,18.50
2022-08-17T02:33:24.888Z,18.38
2022-08-17T02:36:10.350Z,18.36
2022-08-17T02:38:39.373Z,18.31
2022-08-17T02:41:06.716Z,18.25
2022-08-17T02:43:33.825Z,18.21
2022-08-17T02:46:00.680Z,18.17
2022-08-17T02:48:30.710Z,18.15
2022-08-17T02:51:00.449Z,18.14
2022-08-17T02:53:27.982Z,18.10
2022-08-17T02:56:02.713Z,18.15
2022-08-17T02:58:35.115Z,18.20
2022-08-17T03:01:09.645Z,18.26
2022-08-17T03:03:38.229Z,18.32
2022-08-17T03:06:07.646Z,18.43
2022-08-17T03:08:35.223Z,18.44
2022-08-17T03:11:02.058Z,18.46
2022-08-17T03:13:30.657Z,18.58
2022-08-17T03:15:57.618Z,18.67
2022-08-17T03:18:26.322Z,18.70
2022-08-17T03:20:56.721Z,18.73
2022-08-17T03:23:25.710Z,18.83
2022-08-17T03:25:54.330Z,18.94
2022-08-17T03:28:22.329Z,19.02
2022-08-17T03:30:51.081Z,19.04
2022-08-17T03:33:19.275Z,18.99
2022-08-17T03:35:46.788Z,18.98
2022-08-17T03:38:15.867Z,18.97
2022-08-17T03:40:56.648Z,18.91
2022-08-17T03:43:30.394Z,18.83
2022-08-17T03:46:28.423Z,18.76
2022-08-17T03:49:26.037Z,18.81
2022-08-17T03:52:16.234Z,18.78
2022-08-17T03:55:03.401Z,18.75
2022-08-17T03:57:31.985Z,18.66
2022-08-17T03:59:59.698Z,18.51
2022-08-17T04:02:32.963Z,18.43
2022-08-17T04:05:00.611Z,18.38
2022-08-17T04:07:30.355Z,18.29
2022-08-17T04:09:58.156Z,18.30
2022-08-17T04:12:30.524Z,18.36
2022-08-17T04:14:58.266Z,18.29
2022-08-17T04:17:28.763Z,18.36
2022-08-17T04:19:56.114Z,18.36
2022-08-17T04:22:30.954Z,18.25
2022-08-17T04:24:59.306Z,18.35
2022-08-17T04:27:26.143Z,18.44
2022-08-17T04:29:54.905Z,18.58
2022-08-17T04:33:05.090Z,18.68
2022-08-17T04:35:10.186Z,18.60
2022-08-17T04:37:37.583Z,18.68
2022-08-17T04:40:27.518Z,18.74
2022-08-17T04:43:16.451Z,18.78
2022-08-17T04:45:55.779Z,18.88
2022-08-17T04:48:27.878Z,18.83
2022-08-17T04:51:04.846Z,18.91
2022-08-17T04:53:31.793Z,19.01
2022-08-17T04:55:59.059Z,19.04
2022-08-17T04:58:26.133Z,19.12
2022-08-17T05:00:53.353Z,19.14
2022-08-17T05:03:20.177Z,19.25
2022-08-17T05:05:50.007Z,19.35
2022-08-17T05:08:19.848Z,19.48
2022-08-17T05:10:48.802Z,19.56
2022-08-17T05:13:22.911Z,19.76
2022-08-17T05:15:55.087Z,19.91
2022-08-17T05:18:22.128Z,20.01
2022-08-17T05:20:52.596Z,20.24
2022-08-17T05:23:22.603Z,20.35
2022-08-17T05:25:52.277Z,20.55
2022-08-17T05:28:24.207Z,20.74
2022-08-17T05:30:57.896Z,20.91
2022-08-17T05:33:29.271Z,20.98
2022-08-17T05:35:59.201Z,21.19
2022-08-17T05:38:28.346Z,21.41
2022-08-17T05:40:55.893Z,21.62
2022-08-17T05:43:30.172Z,21.80
2022-08-17T05:46:24.268Z,21.85
2022-08-17T05:48:56.558Z,21.99
2022-08-17T05:51:38.512Z,22.18
2022-08-17T05:54:42.552Z,22.34
2022-08-17T05:57:34.657Z,22.54
2022-08-17T06:00:30.118Z,22.83
2022-08-17T06:03:14.762Z,23.14
2022-08-17T06:06:03.299Z,23.41
2022-08-17T06:09:02.242Z,23.64
2022-08-17T06:11:37.303Z,23.87
2022-08-17T06:14:44.665Z,24.13
2022-08-17T06:17:15.979Z,24.11
2022-08-17T06:19:51.399Z,24.54
2022-08-17T06:22:22.857Z,24.42
2022-08-17T06:25:25.914Z,24.97
2022-08-17T06:28:30.090Z,25.35
2022-08-17T06:31:07.188Z,25.35
2022-08-17T06:33:37.693Z,25.79
2022-08-17T06:36:26.435Z,26.09
2022-08-17T06:39:26.442Z,26.41
2022-08-17T06:43:05.150Z,26.69
2022-08-17T06:45:31.202Z,26.40
2022-08-17T06:48:33.851Z,26.95
2022-08-17T06:51:25.876Z,27.14
2022-08-17T06:54:26.069Z,27.32
2022-08-17T06:57:02.511Z,27.27
2022-08-17T06:59:55.362Z,26.86
2022-08-17T07:02:58.724Z,27.48
2022-08-17T07:05:44.756Z,27.09
2022-08-17T07:08:35.583Z,27.61
2022-08-17T07:11:07.929Z,28.02
2022-08-17T07:13:56.997Z,28.21
2022-08-17T07:16:39.233Z,28.28
2022-08-17T07:19:07.544Z,28.12
2022-08-17T07:21:56.227Z,28.25
2022-08-17T07:24:51.602Z,28.58
2022-08-17T07:27:42.843Z,28.68
2022-08-17T07:30:16.384Z,28.83
2022-08-17T07:32:46.337Z,29.09
2022-08-17T07:35:23.007Z,28.88
2022-08-17T07:38:28.417Z,29.53
2022-08-17T07:41:01.075Z,29.84
2022-08-17T07:43:54.557Z,29.95
2022-08-17T07:46:53.054Z,30.22
2022-08-17T07:49:41.606Z,30.47
2022-08-17T07:52:50.573Z,30.89
2022-08-17T07:55:34.861Z,30.78
2022-08-17T07:58:02.000Z,30.78
2022-08-17T08:00:32.395Z,31.01
2022-08-17T08:03:27.115Z,30.71
2022-08-17T08:06:03.206Z,30.89
2022-08-17T08:08:42.150Z,30.81
2022-08-17T08:11:16.773Z,30.89
2022-08-17T08:13:45.555Z,31.24
2022-08-17T08:16:24.232Z,31.46
2022-08-17T08:18:57.708Z,31.36
2022-08-17T08:21:47.168Z,31.48
2022-08-17T08:24:46.160Z,31.70
2022-08-17T08:27:46.243Z,31.39
2022-08-17T08:30:21.211Z,31.54
2022-08-17T08:33:09.182Z,31.73
2022-08-17T08:35:56.149Z,31.73
2022-08-17T08:38:44.988Z,31.68
2022-08-17T08:41:24.071Z,32.31
2022-08-17T08:44:08.404Z,32.39
2022-08-17T08:46:53.136Z,32.15
2022-08-17T08:50:01.239Z,32.18
2022-08-17T08:53:00.176Z,31.71
2022-08-17T08:56:03.864Z,31.46
2022-08-17T08:58:43.526Z,30.89
2022-08-17T09:01:39.130Z,31.50
2022-08-17T09:05:10.755Z,31.74
2022-08-17T09:07:54.642Z,31.77
2022-08-17T09:10:57.500Z,31.67
2022-08-17T09:14:00.381Z,32.37
2022-08-17T09:17:09.129Z,32.34
2022-08-17T09:19:56.998Z,32.10
2022-08-17T09:22:34.434Z,32.19
2022-08-17T09:25:16.710Z,31.98
2022-08-17T09:28:03.687Z,32.22
2022-08-17T09:30:46.323Z,32.78
2022-08-17T09:33:22.740Z,33.01
2022-08-17T09:36:26.306Z,32.84
2022-08-17T09:39:13.206Z,32.82
2022-08-17T09:41:49.313Z,32.85
2022-08-17T09:44:41.549Z,32.85
2022-08-17T09:47:42.029Z,32.83
2022-08-17T09:51:03.387Z,33.00
2022-08-17T09:53:32.036Z,33.45
2022-08-17T09:56:31.570Z,33.25
2022-08-17T09:59:38.176Z,33.26
2022-08-17T10:02:54.383Z,33.85
2022-08-17T10:05:57.115Z,33.49
2022-08-17T10:09:16.060Z,33.52
2022-08-17T10:12:12.708Z,33.75
2022-08-17T10:14:53.401Z,34.70
2022-08-17T10:17:56.298Z,34.89
2022-08-17T10:20:31.701Z,34.02
2022-08-17T10:23:56.256Z,33.94
2022-08-17T10:26:26.332Z,34.61
2022-08-17T10:28:59.990Z,34.76
2022-08-17T10:31:40.132Z,34.30
2022-08-17T10:34:51.801Z,34.84
2022-08-17T10:37:53.636Z,35.34
2022-08-17T10:40:54.390Z,35.05
2022-08-17T10:44:38.043Z,34.95
2022-08-17T10:47:14.354Z,35.50
2022-08-17T10:49:49.498Z,35.73
2022-08-17T10:52:30.390Z,35.23
2022-08-17T10:55:17.802Z,35.59
2022-08-17T10:57:50.084Z,35.70
2022-08-17T11:00:28.393Z,35.87
2022-08-17T11:02:57.478Z,36.41
2022-08-17T11:05:52.221Z,36.05
2022-08-17T11:08:56.902Z,35.67
2022-08-17T11:11:47.392Z,35.58
2022-08-17T11:14:41.841Z,35.84
2022-08-17T11:18:01.454Z,35.70
2022-08-17T11:20:49.237Z,35.70
2022-08-17T11:23:35.392Z,36.55
2022-08-17T11:26:19.018Z,36.25
2022-08-17T11:28:54.295Z,36.29
2022-08-17T11:31:46.553Z,36.17
2022-08-17T11:34:26.410Z,37.14
2022-08-17T11:37:03.650Z,37.57
2022-08-17T11:40:08.965Z,37.10
2022-08-17T11:42:54.587Z,37.43
2022-08-17T11:45:36.401Z,37.69
2022-08-17T11:49:25.642Z,38.20
2022-08-17T11:52:01.245Z,37.45
2022-08-17T11:54:33.649Z,37.67
2022-08-17T11:57:25.474Z,37.92
2022-08-17T12:00:12.398Z,37.85
2022-08-17T12:02:48.254Z,37.87
2022-08-17T12:05:16.856Z,37.97
2022-08-17T12:07:51.915Z,38.76
2022-08-17T12:10:31.490Z,38.08
2022-08-17T12:13:06.403Z,38.16
2022-08-17T12:15:41.576Z,37.91
2022-08-17T12:18:08.950Z,38.62
2022-08-17T12:20:41.432Z,38.93
2022-08-17T12:23:28.018Z,39.50
2022-08-17T12:26:17.578Z,38.96
2022-08-17T12:28:55.886Z,39.43
2022-08-17T12:31:44.902Z,39.26
2022-08-17T12:34:27.740Z,39.57
2022-08-17T12:37:22.427Z,39.10
2022-08-17T12:39:59.183Z,38.21
2022-08-17T12:42:37.702Z,39.14
2022-08-17T12:45:07.806Z,39.54
2022-08-17T12:47:38.037Z,39.31
2022-08-17T12:50:28.881Z,39.37
2022-08-17T12:53:01.732Z,37.88
2022-08-17T12:55:32.606Z,38.90
2022-08-17T12:58:02.359Z,38.77
2022-08-17T13:00:35.239Z,38.73
2022-08-17T13:03:13.282Z,38.66
2022-08-17T13:05:54.147Z,38.78
2022-08-17T13:08:35.469Z,39.26
2022-08-17T13:11:20.899Z,39.85
2022-08-17T13:13:53.341Z,40.42
2022-08-17T13:16:26.718Z,40.62
2022-08-17T13:18:55.272Z,40.21
2022-08-17T13:21:30.466Z,40.35
2022-08-17T13:24:13.732Z,40.32
2022-08-17T13:27:08.234Z,40.39
2022-08-17T13:29:51.528Z,41.25
2022-08-17T13:32:43.854Z,41.38
2022-08-17T13:35:44.145Z,42.36
2022-08-17T13:38:49.631Z,41.86
2022-08-17T13:41:35.882Z,40.87
2022-08-17T13:44:37.019Z,40.01
2022-08-17T13:47:16.328Z,38.81
2022-08-17T13:49:49.274Z,38.47
2022-08-17T13:52:52.382Z,38.10
2022-08-17T13:55:22.022Z,39.40
2022-08-17T13:57:57.786Z,39.81
2022-08-17T14:00:36.298Z,38.86
2022-08-17T14:03:05.464Z,39.60
2022-08-17T14:05:33.706Z,39.59
2022-08-17T14:08:06.503Z,40.55
2022-08-17T14:10:36.257Z,40.25
2022-08-17T14:13:03.552Z,40.10
2022-08-17T14:15:56.108Z,41.03
2022-08-17T14:18:35.480Z,41.06
2022-08-17T14:21:08.381Z,41.84
2022-08-17T14:23:36.660Z,41.89
2022-08-17T14:26:03.889Z,42.98
2022-08-17T14:28:30.730Z,42.04
2022-08-17T14:31:00.685Z,42.88
2022-08-17T14:33:28.882Z,43.97
2022-08-17T14:35:57.436Z,44.16
2022-08-17T14:38:24.648Z,43.91
2022-08-17T14:40:51.843Z,44.52
2022-08-17T14:43:20.393Z,45.63
2022-08-17T14:45:47.529Z,46.55
2022-08-17T14:48:14.459Z,45.81
2022-08-17T14:50:43.189Z,46.02
2022-08-17T14:53:12.693Z,45.84
2022-08-17T14:55:40.352Z,45.90
2022-08-17T14:58:08.675Z,46.27
2022-08-17T15:00:39.358Z,46.66
2022-08-17T15:03:06.255Z,46.80
2022-08-17T15:05:37.135Z,46.64
2022-08-17T15:08:05.617Z,46.96
2022-08-17T15:10:33.210Z,47.62
2022-08-17T15:13:00.622Z,48.03
2022-08-17T15:15:28.782Z,48.27
2022-08-17T15:17:56.031Z,46.26
2022-08-17T15:20:27.915Z,47.64
2022-08-17T15:22:56.134Z,47.54
2022-08-17T15:25:27.418Z,47.75
2022-08-17T15:27:55.808Z,47.43
2022-08-17T15:30:23.533Z,45.71
2022-08-17T15:32:54.557Z,44.02
2022-08-17T15:35:28.388Z,42.52
2022-08-17T15:38:10.720Z,40.70
2022-08-17T15:40:46.674Z,39.88
2022-08-17T15:43:27.746Z,39.81
2022-08-17T15:46:00.246Z,39.18
2022-08-17T15:48:42.083Z,39.09
2022-08-17T15:51:21.356Z,38.57
2022-08-17T15:53:52.920Z,38.21
2022-08-17T15:56:20.560Z,37.80
2022-08-17T15:58:48.846Z,37.68
2022-08-17T16:01:35.160Z,37.38
2022-08-17T16:04:26.487Z,37.12
2022-08-17T16:06:54.223Z,36.86
2022-08-17T16:09:21.046Z,36.76
2022-08-17T16:11:52.185Z,36.66
2022-08-17T16:14:22.575Z,36.52
2022-08-17T16:16:51.076Z,36.19
2022-08-17T16:19:17.928Z,35.98
2022-08-17T16:21:44.807Z,35.67
2022-08-17T16:24:13.080Z,35.58
2022-08-17T16:26:40.868Z,35.27
2022-08-17T16:29:08.904Z,35.13
2022-08-17T16:31:37.593Z,35.07
2022-08-17T16:34:17.354Z,34.86
2022-08-17T16:36:54.722Z,34.53
2022-08-17T16:39:26.348Z,34.12
2022-08-17T16:41:53.328Z,33.85
2022-08-17T16:44:21.726Z,33.76
2022-08-17T16:46:50.249Z,33.75
2022-08-17T16:49:25.711Z,33.70
2022-08-17T16:52:07.431Z,33.60
2022-08-17T16:54:35.374Z,33.39
2022-08-17T16:57:05.033Z,33.39
2022-08-17T16:59:40.720Z,33.36
2022-08-17T17:02:11.270Z,33.30
2022-08-17T17:04:53.664Z,33.17
2022-08-17T17:08:03.360Z,32.84
2022-08-17T17:10:45.696Z,32.65
2022-08-17T17:13:35.591Z,32.49
2022-08-17T17:16:28.531Z,32.44
2022-08-17T17:19:10.750Z,32.42
2022-08-17T17:21:47.212Z,32.37
2022-08-17T17:24:25.135Z,32.29
2022-08-17T17:26:56.715Z,32.18
2022-08-17T17:30:04.595Z,32.10
2022-08-17T17:32:56.458Z,31.99
2022-08-17T17:35:34.588Z,31.98
2022-08-17T17:38:15.313Z,31.86
2022-08-17T17:40:50.763Z,31.74
2022-08-17T17:43:38.157Z,31.64
2022-08-17T17:46:28.278Z,31.52
2022-08-17T17:48:59.334Z,31.45
2022-08-17T17:52:08.729Z,31.38
2022-08-17T17:55:08.305Z,31.16
2022-08-17T17:57:44.802Z,30.98
2022-08-17T18:00:24.545Z,30.86
2022-08-17T18:03:19.390Z,30.71
2022-08-17T18:06:10.320Z,30.56
2022-08-17T18:09:10.250Z,30.36
2022-08-17T18:12:05.355Z,30.13
2022-08-17T18:15:09.948Z,29.96
2022-08-17T18:17:36.997Z,29.84
2022-08-17T18:20:07.353Z,29.60
2022-08-17T18:22:34.278Z,29.33
2022-08-17T18:25:01.500Z,29.10
2022-08-17T18:27:39.484Z,28.94
2022-08-17T18:30:12.480Z,28.76
2022-08-17T18:32:46.718Z,28.52
2022-08-17T18:35:16.168Z,28.46
2022-08-17T18:38:20.098Z,28.33
2022-08-17T18:41:20.083Z,28.21
2022-08-17T18:44:05.541Z,28.21
2022-08-17T18:46:36.571Z,28.22
2022-08-17T18:49:28.947Z,28.16
2022-08-17T18:52:28.808Z,28.17
2022-08-17T18:55:13.206Z,28.12
2022-08-17T18:57:52.299Z,28.05
2022-08-17T19:00:32.086Z,28.04
2022-08-17T19:03:16.748Z,27.91
2022-08-17T19:05:54.670Z,27.84
2022-08-17T19:08:33.557Z,27.70
2022-08-17T19:11:10.423Z,27.67
2022-08-17T19:13:53.605Z,27.67
2022-08-17T19:16:27.396Z,27.58
2022-08-17T19:19:19.571Z,27.53
2022-08-17T19:21:59.521Z,27.46
2022-08-17T19:24:30.949Z,27.45
2022-08-17T19:27:08.014Z,27.41
2022-08-17T19:29:57.997Z,27.30
2022-08-17T19:32:34.287Z,27.28
2022-08-17T19:35:03.115Z,27.28
2022-08-17T19:37:58.877Z,27.33
2022-08-17T19:40:52.743Z,27.41
2022-08-17T19:43:51.425Z,27.49
2022-08-17T19:46:50.688Z,27.55
2022-08-17T19:49:45.568Z,27.60
2022-08-17T19:52:47.422Z,27.60
2022-08-17T19:55:53.697Z,27.59
2022-08-17T19:58:48.294Z,27.59
2022-08-17T20:01:45.496Z,27.56
2022-08-17T20:04:32.446Z,27.58
2022-08-17T20:07:54.569Z,27.39
2022-08-17T20:11:18.403Z,27.32
2022-08-17T20:14:00.078Z,27.24
2022-08-17T20:16:27.109Z,27.14
2022-08-17T20:19:08.786Z,27.09
2022-08-17T20:22:04.353Z,27.04
2022-08-17T20:24:51.093Z,27.00
2022-08-17T20:27:32.152Z,26.96
2022-08-17T20:29:59.091Z,26.97
2022-08-17T20:32:52.742Z,26.90
2022-08-17T20:35:39.464Z,26.89
2022-08-17T20:38:14.262Z,26.88
2022-08-17T20:41:01.107Z,26.91
2022-08-17T20:43:33.973Z,26.87
2022-08-17T20:46:32.894Z,26.87
2022-08-17T20:49:14.975Z,26.86
2022-08-17T20:52:00.840Z,26.83
2022-08-17T20:54:54.818Z,26.75
2022-08-17T20:57:37.571Z,26.70
2022-08-17T21:00:16.351Z,26.80
2022-08-17T21:02:51.955Z,26.91
2022-08-17T21:05:34.666Z,26.96
2022-08-17T21:08:17.110Z,27.03
2022-08-17T21:10:47.009Z,27.08
2022-08-17T21:13:15.348Z,27.08
2022-08-17T21:15:52.506Z,27.07
2022-08-17T21:19:10.101Z,27.12
2022-08-17T21:21:58.161Z,27.14
2022-08-17T21:25:02.656Z,27.20
2022-08-17T21:28:02.951Z,27.21
2022-08-17T21:30:30.360Z,27.21
2022-08-17T21:33:20.075Z,27.25
2022-08-17T21:36:11.776Z,27.25
2022-08-17T21:38:47.205Z,27.29
2022-08-17T21:41:31.187Z,27.30
2022-08-17T21:44:46.971Z,27.31
2022-08-17T21:47:18.737Z,27.33
2022-08-17T21:49:45.575Z,27.32
2022-08-17T21:52:17.576Z,27.33
2022-08-17T21:55:02.359Z,27.34
2022-08-17T21:57:30.105Z,27.37
2022-08-17T22:00:00.440Z,27.30
2022-08-17T22:02:41.743Z,27.26
2022-08-17T22:05:14.619Z,27.31
2022-08-17T22:07:45.745Z,27.36
2022-08-17T22:10:33.255Z,27.32
2022-08-17T22:13:21.513Z,27.30
2022-08-17T22:16:15.614Z,27.39
2022-08-17T22:18:57.558Z,27.35
2022-08-17T22:21:24.637Z,27.37
2022-08-17T22:24:21.125Z,27.34
2022-08-17T22:27:11.897Z,27.34
2022-08-17T22:29:53.182Z,27.31
2022-08-17T22:32:46.320Z,27.20
2022-08-17T22:35:24.872Z,27.12
2022-08-17T22:37:52.013Z,26.63
2022-08-17T22:40:31.771Z,26.64
2022-08-17T22:43:00.730Z,26.21
2022-08-17T22:45:33.763Z,26.25
2022-08-17T22:48:02.026Z,25.64
2022-08-17T22:50:32.966Z,25.35
2022-08-17T22:53:32.785Z,25.14
2022-08-17T22:56:18.611Z,24.85
2022-08-17T22:59:13.307Z,24.49
2022-08-17T23:01:42.777Z,24.42
2022-08-17T23:04:35.776Z,24.23
2022-08-17T23:07:02.682Z,24.16
2022-08-17T23:09:29.894Z,24.20
2022-08-17T23:11:58.627Z,24.14
2022-08-17T23:14:31.379Z,24.06
2022-08-17T23:16:59.590Z,23.96
2022-08-17T23:19:27.953Z,23.90
2022-08-17T23:21:56.303Z,23.83
2022-08-17T23:24:26.632Z,23.61
2022-08-17T23:26:57.235Z,23.36
2022-08-17T23:29:29.560Z,23.33
2022-08-17T23:31:59.877Z,23.29
2022-08-17T23:34:28.090Z,23.11
2022-08-17T23:36:56.241Z,23.08
2022-08-17T23:39:27.519Z,23.23
2022-08-17T23:41:58.199Z,23.05
2022-08-17T23:44:25.821Z,22.87
2022-08-17T23:46:53.385Z,23.05
2022-08-17T23:49:20.626Z,23.08
2022-08-17T23:51:48.459Z,23.15
2022-08-17T23:54:44.041Z,23.13
2022-08-17T23:57:17.665Z,23.22
2022-08-17T23:59:45.515Z,23.07
